Time;durP1;ratioP1;P1;durP2;ratioP2;P2;SDS_P1;SDS_P2;PMS_P1;PMS_P2;Temp;Humidity;BMP_temperature;BMP_pressure;BME280_temperature;BME280_humidity;BME280_pressure;Samples;Min_cycle;Max_cycle;Signal;HPM_P1;HPM_P2
2022/08/04 00:00:28;;;;;;;4.10;2.80;;;;;;;27.80;40.72;97266.09;5033089;28;20990;-74
2022/08/04 00:03:11;;;;;;;4.73;3.17;;;;;;;27.74;41.01;97259.88;5033390;28;20439;-74
2022/08/04 00:05:40;;;;;;;6.37;2.50;;;;;;;27.74;41.17;97265.28;5029169;28;20681;-74
2022/08/04 00:08:17;;;;;;;2.80;2.30;;;;;;;27.81;40.43;97256.16;5032512;28;20434;-73
2022/08/04 00:10:48;;;;;;;2.87;2.63;;;;;;;27.84;40.84;97261.03;5030554;28;20410;-73
2022/08/04 00:13:14;;;;;;;2.53;2.33;;;;;;;27.80;40.93;97255.34;5036013;28;20886;-74
2022/08/04 00:15:40;;;;;;;4.20;2.60;;;;;;;27.74;41.14;97264.47;5033114;28;20449;-74
2022/08/04 00:18:09;;;;;;;10.53;2.57;;;;;;;27.66;41.38;97264.97;5031407;28;20795;-73
2022/08/04 00:20:37;;;;;;;3.60;2.53;;;;;;;27.58;41.71;97258.22;5034507;28;20411;-73
2022/08/04 00:23:05;;;;;;;2.73;2.43;;;;;;;27.54;41.70;97262.47;5032799;28;20534;-74
2022/08/04 00:25:30;;;;;;;6.43;2.77;;;;;;;27.50;41.73;97256.00;5025138;28;21017;-73
2022/08/04 00:27:56;;;;;;;3.50;1.87;;;;;;;27.52;41.72;97261.94;5036090;28;20494;-73
2022/08/04 00:30:22;;;;;;;2.27;1.77;;;;;;;27.49;41.81;97257.06;5032729;28;20208;-73
2022/08/04 00:32:48;;;;;;;4.00;2.37;;;;;;;27.49;41.81;97265.13;5031521;28;20204;-73
2022/08/04 00:35:14;;;;;;;9.00;2.33;;;;;;;27.44;41.83;97260.50;5032536;28;20206;-72
2022/08/04 00:37:43;;;;;;;3.77;2.30;;;;;;;27.37;42.10;97260.75;5031976;28;20863;-74
2022/08/04 00:40:14;;;;;;;3.27;2.17;;;;;;;27.31;42.02;97263.66;5032585;28;20250;-74
2022/08/04 00:42:44;;;;;;;4.93;2.33;;;;;;;27.33;42.27;97261.53;5035847;28;20442;-73
2022/08/04 00:45:34;;;;;;;3.13;2.33;;;;;;;27.33;42.30;97256.97;5029722;28;20462;-73
2022/08/04 00:48:15;;;;;;;5.17;2.40;;;;;;;27.36;42.10;97259.13;5031879;28;20425;-74
2022/08/04 00:50:49;;;;;;;4.87;3.13;;;;;;;27.39;42.00;97261.28;5026095;28;20410;-73
2022/08/04 00:53:53;;;;;;;2.47;2.20;;;;;;;27.42;42.18;97260.78;5030892;28;20443;-73
2022/08/04 00:56:43;;;;;;;3.77;2.20;;;;;;;27.43;42.22;97253.50;5030451;28;20804;-73
2022/08/04 00:59:36;;;;;;;3.00;2.40;;;;;;;27.39;41.87;97258.59;5032038;28;20419;-74
2022/08/04 01:02:27;;;;;;;2.57;2.17;;;;;;;27.34;41.97;97258.59;5038938;28;20422;-73
2022/08/04 01:05:03;;;;;;;2.40;2.20;;;;;;;27.23;42.33;97246.94;5031347;28;20512;-72
2022/08/04 01:07:38;;;;;;;6.90;2.33;;;;;;;27.12;42.95;97253.34;5031477;28;20426;-74
2022/08/04 01:10:16;;;;;;;5.67;2.73;;;;;;;26.93;43.30;97252.91;5031340;28;20426;-74
2022/08/04 01:13:16;;;;;;;2.97;2.50;;;;;;;26.90;43.54;97242.69;5038880;28;20804;-74
2022/08/04 01:15:53;;;;;;;3.70;2.80;;;;;;;26.89;43.54;97251.81;5009000;28;20426;-74
2022/08/04 01:18:34;;;;;;;3.10;2.40;;;;;;;26.96;43.48;97252.41;5030138;28;20422;-74
2022/08/04 01:21:22;;;;;;;3.70;2.30;;;;;;;26.98;43.21;97247.56;5033075;28;20960;-74
2022/08/04 01:24:12;;;;;;;3.07;2.40;;;;;;;26.92;43.61;97251.31;5026278;28;20466;-74
2022/08/04 01:26:39;;;;;;;3.00;2.67;;;;;;;26.87;43.66;97246.69;5031190;28;20411;-74
2022/08/04 01:29:12;;;;;;;3.10;2.40;;;;;;;26.88;43.51;97250.19;5032754;28;20438;-74
2022/08/04 01:31:43;;;;;;;2.97;2.40;;;;;;;26.88;43.79;97251.00;5030191;28;20509;-73
2022/08/04 01:34:12;;;;;;;4.10;2.33;;;;;;;26.90;43.00;97248.06;5031215;28;20442;-73
2022/08/04 01:36:44;;;;;;;4.50;2.30;;;;;;;26.89;43.54;97251.81;5022980;28;20430;-73
2022/08/04 01:41:55;;;;;;;6.37;2.30;;;;;;;26.83;43.37;97256.34;5032251;28;20426;-75
2022/08/04 01:44:23;;;;;;;4.40;2.57;;;;;;;26.80;42.38;97249.59;5031150;28;20458;-74
2022/08/04 01:46:50;;;;;;;5.67;2.00;;;;;;;26.70;42.36;97248.66;5031329;28;20480;-74
2022/08/04 01:49:16;;;;;;;3.03;2.30;;;;;;;26.71;42.47;97248.44;5029977;28;20425;-74
2022/08/04 01:51:43;;;;;;;5.10;2.50;;;;;;;26.78;42.37;97243.66;5030140;28;20414;-74
2022/08/04 01:54:09;;;;;;;2.33;2.13;;;;;;;26.82;42.52;97244.78;5029721;28;20446;-75
2022/08/04 01:56:35;;;;;;;2.67;2.37;;;;;;;26.80;42.54;97241.53;5029524;28;20415;-75
2022/08/04 01:59:02;;;;;;;6.80;2.67;;;;;;;26.73;42.99;97240.09;5022684;28;20485;-73
2022/08/04 02:01:27;;;;;;;3.10;2.17;;;;;;;26.74;42.77;97241.72;5030737;28;20655;-74
2022/08/04 02:03:53;;;;;;;7.37;2.27;;;;;;;26.74;43.26;97239.84;5030873;28;20521;-74
2022/08/04 02:06:30;;;;;;;3.60;1.70;;;;;;;26.67;43.47;97239.25;5030922;28;20199;-73
2022/08/04 02:09:11;;;;;;;2.50;2.30;;;;;;;26.65;43.63;97242.16;5030872;28;20836;-74
2022/08/04 02:11:40;;;;;;;2.73;2.53;;;;;;;26.58;43.47;97236.22;5023071;28;20462;-74
2022/08/04 02:14:39;;;;;;;2.40;2.20;;;;;;;26.53;44.12;97241.53;5030639;28;20438;-73
2022/08/04 02:17:30;;;;;;;2.83;2.50;;;;;;;26.50;43.90;97240.16;5030290;28;20506;-73
2022/08/04 02:20:13;;;;;;;3.47;2.37;;;;;;;26.47;44.13;97243.34;5028292;28;20451;-74
2022/08/04 02:23:00;;;;;;;1.97;1.87;;;;;;;26.41;44.39;97238.19;5024285;28;20438;-74
2022/08/04 02:25:28;;;;;;;5.63;2.20;;;;;;;26.26;44.69;97233.47;5030395;28;20415;-74
2022/08/04 02:28:12;;;;;;;3.07;2.43;;;;;;;26.29;44.52;97235.66;5036943;28;20422;-74
2022/08/04 02:30:50;;;;;;;2.73;2.00;;;;;;;26.28;44.74;97229.47;5026918;28;20425;-74
2022/08/04 02:33:18;;;;;;;8.60;2.70;;;;;;;26.28;44.55;97239.41;5022226;28;20458;-73
2022/08/04 02:35:45;;;;;;;2.47;2.27;;;;;;;26.25;44.37;97229.19;5030670;28;20803;-73
2022/08/04 02:38:29;;;;;;;3.83;2.37;;;;;;;26.22;45.03;97228.63;5027376;28;20426;-74
2022/08/04 02:40:57;;;;;;;3.53;2.40;;;;;;;26.15;44.70;97230.69;5031222;28;20514;-74
2022/08/04 02:43:24;;;;;;;2.60;2.40;;;;;;;26.06;44.73;97229.50;5031377;28;20542;-74
2022/08/04 02:45:55;;;;;;;2.80;2.10;;;;;;;26.04;45.05;97227.06;5029245;28;20426;-73
2022/08/04 02:48:23;;;;;;;3.00;2.33;;;;;;;26.01;44.71;97227.59;5028940;28;20514;-75
2022/08/04 02:50:50;;;;;;;2.37;2.17;;;;;;;26.04;44.62;97226.25;5030279;28;20480;-74
2022/08/04 02:53:17;;;;;;;3.00;2.10;;;;;;;26.07;44.65;97231.13;5029035;28;20435;-73
2022/08/04 02:55:43;;;;;;;7.97;2.67;;;;;;;26.09;44.58;97226.28;5029294;28;20458;-74
2022/08/04 02:58:09;;;;;;;4.03;2.30;;;;;;;26.08;45.05;97224.69;5030194;28;20787;-74
2022/08/04 03:00:36;;;;;;;3.97;2.40;;;;;;;25.99;45.03;97220.81;5030786;28;20557;-74
2022/08/04 03:03:16;;;;;;;4.07;2.33;;;;;;;25.91;45.06;97220.22;5030418;28;20299;-73
2022/08/04 03:06:03;;;;;;;3.53;2.20;;;;;;;25.85;45.23;97215.84;5024216;28;20418;-74
2022/08/04 03:08:48;;;;;;;2.60;2.40;;;;;;;25.92;45.11;97213.78;5028787;28;20494;-74
2022/08/04 03:11:27;;;;;;;3.37;2.10;;;;;;;25.97;45.04;97214.88;5028968;28;20452;-74
2022/08/04 03:13:56;;;;;;;2.97;2.40;;;;;;;26.00;44.92;97209.03;5030911;28;20968;-74
2022/08/04 03:16:21;;;;;;;2.30;2.20;;;;;;;25.84;45.21;97211.53;5025912;28;20457;-73
2022/08/04 03:19:22;;;;;;;6.53;2.40;;;;;;;25.79;45.34;97216.03;5029322;28;20419;-73
2022/08/04 03:21:50;;;;;;;3.00;2.60;;;;;;;25.81;45.28;97219.28;5015343;28;20643;-73
2022/08/04 03:24:31;;;;;;;3.10;2.80;;;;;;;25.79;45.60;97222.22;5011144;28;21004;-73
2022/08/04 03:27:26;;;;;;;5.20;2.20;;;;;;;25.59;46.01;97228.94;5032016;28;20422;-73
2022/08/04 03:30:08;;;;;;;4.63;2.40;;;;;;;25.61;45.73;97224.16;5037669;28;20418;-74
2022/08/04 03:33:14;;;;;;;4.30;2.50;;;;;;;25.58;45.65;97229.22;5027364;28;20453;-74
2022/08/04 03:35:57;;;;;;;2.30;2.10;;;;;;;25.54;45.43;97225.38;5040228;28;20409;-73
2022/08/04 03:38:41;;;;;;;2.77;2.53;;;;;;;25.57;45.96;97232.94;5045762;28;20458;-74
2022/08/04 03:41:25;;;;;;;2.80;2.30;;;;;;;25.61;45.85;97234.88;5039615;28;20774;-74
2022/08/04 03:44:05;;;;;;;2.63;2.40;;;;;;;25.65;45.44;97237.06;5045913;28;20453;-73
2022/08/04 03:46:45;;;;;;;2.70;2.50;;;;;;;25.59;45.77;97241.56;5033437;28;20410;-74
2022/08/04 03:49:48;;;;;;;6.47;2.57;;;;;;;25.50;46.01;97235.00;5045755;28;20443;-73
2022/08/04 03:55:48;;;;;;;3.37;2.13;;;;;;;25.51;45.51;97240.13;5031570;28;20411;-73
2022/08/04 03:58:44;;;;;;;6.97;2.70;;;;;;;25.49;45.42;97236.88;5047330;28;20430;-74
2022/08/04 04:01:15;;;;;;;2.77;2.50;;;;;;;25.52;45.24;97236.38;5046688;28;20410;-75
2022/08/04 04:04:02;;;;;;;3.73;2.63;;;;;;;25.57;45.30;97233.78;5029346;28;20537;-74
2022/08/04 04:06:45;;;;;;;2.73;2.07;;;;;;;25.58;45.60;97232.69;5040367;28;20425;-73
2022/08/04 04:09:18;;;;;;;2.80;2.30;;;;;;;25.52;45.71;97227.53;5047405;28;21012;-74
2022/08/04 04:11:57;;;;;;;4.90;2.30;;;;;;;25.45;45.64;97225.81;5030425;28;20434;-74
2022/08/04 04:14:48;;;;;;;2.30;2.10;;;;;;;25.40;45.94;97230.28;5044076;28;20405;-74
2022/08/04 04:17:32;;;;;;;2.40;2.20;;;;;;;25.42;45.91;97230.88;5041340;28;20410;-73
2022/08/04 04:20:25;;;;;;;4.60;2.73;;;;;;;25.41;45.43;97229.25;5031167;28;20429;-74
2022/08/04 04:23:09;;;;;;;2.60;2.40;;;;;;;25.44;45.28;97232.25;5037608;28;20438;-74
2022/08/04 04:26:02;;;;;;;2.43;2.20;;;;;;;25.46;45.59;97226.63;5031286;28;20429;-74
2022/08/04 04:28:33;;;;;;;2.13;2.03;;;;;;;25.35;45.95;97231.03;5042071;28;20417;-74
2022/08/04 04:31:08;;;;;;;2.80;2.40;;;;;;;25.34;45.51;97229.41;5048390;28;21130;-74
2022/08/04 04:33:56;;;;;;;3.23;2.40;;;;;;;25.35;45.40;97232.88;5032355;28;20803;-74
2022/08/04 04:36:34;;;;;;;7.00;2.30;;;;;;;25.37;45.10;97230.78;5025502;28;20514;-74
2022/08/04 04:39:14;;;;;;;4.40;2.50;;;;;;;25.42;45.22;97236.25;5040432;28;20517;-74
2022/08/04 04:41:52;;;;;;;6.30;2.60;;;;;;;25.49;45.44;97234.19;5048231;28;20418;-74
2022/08/04 04:44:46;;;;;;;5.90;2.40;;;;;;;25.50;45.52;97226.97;5024254;28;20458;-74
2022/08/04 04:47:32;;;;;;;3.10;2.80;;;;;;;25.52;46.23;97231.00;5022935;28;20430;-75
2022/08/04 04:50:14;;;;;;;3.30;2.40;;;;;;;25.56;46.36;97239.38;5036615;28;20441;-73
2022/08/04 04:52:45;;;;;;;4.83;2.40;;;;;;;25.57;46.30;97233.78;5033994;28;20960;-74
2022/08/04 04:55:23;;;;;;;3.50;2.60;;;;;;;25.53;46.80;97240.69;5032858;28;20423;-74
2022/08/04 04:57:54;;;;;;;9.33;3.10;;;;;;;25.54;47.21;97239.63;5045581;28;20495;-74
2022/08/04 05:00:20;;;;;;;3.77;2.80;;;;;;;25.58;47.01;97242.63;5044904;28;20410;-74
2022/08/04 05:02:55;;;;;;;5.93;3.10;;;;;;;25.62;46.54;97243.75;5035469;28;20537;-74
2022/08/04 05:05:33;;;;;;;3.63;2.80;;;;;;;25.65;46.31;97253.97;5032263;28;21027;-73
2022/08/04 05:08:19;;;;;;;3.23;2.93;;;;;;;25.71;46.53;97244.94;5043541;28;20467;-74
2022/08/04 05:10:50;;;;;;;3.80;2.70;;;;;;;25.76;46.34;97252.22;5030409;28;20972;-75
2022/08/04 05:13:41;;;;;;;8.37;2.87;;;;;;;25.80;46.36;97248.00;5034725;28;20641;-75
2022/08/04 05:16:18;;;;;;;4.10;2.60;;;;;;;25.84;46.71;97249.09;5027611;28;20407;-72
2022/08/04 05:18:47;;;;;;;3.80;3.00;;;;;;;25.92;46.73;97242.47;5021246;28;20438;-73
2022/08/04 05:21:29;;;;;;;4.40;2.67;;;;;;;26.01;46.24;97242.84;5025415;28;20428;-72
2022/08/04 05:23:59;;;;;;;7.70;2.70;;;;;;;26.09;45.98;97245.09;5015555;28;20469;-73
2022/08/04 05:26:30;;;;;;;5.17;2.90;;;;;;;26.19;46.31;97247.13;5032310;28;20437;-72
2022/08/04 05:28:57;;;;;;;3.57;2.20;;;;;;;26.26;46.15;97244.22;5019525;28;20431;-72
2022/08/04 05:31:28;;;;;;;3.17;2.43;;;;;;;26.31;45.60;97247.78;5030764;28;20430;-72
2022/08/04 05:34:07;;;;;;;5.33;2.50;;;;;;;26.36;43.02;97244.31;5017703;28;20443;-74
2022/08/04 05:36:37;;;;;;;2.53;2.33;;;;;;;26.40;42.67;97250.81;5029370;28;20496;-73
2022/08/04 05:39:05;;;;;;;3.70;2.20;;;;;;;26.45;42.12;97244.69;5017954;28;20427;-73
2022/08/04 05:41:32;;;;;;;3.63;1.60;;;;;;;26.56;42.06;97245.59;5015184;28;20916;-73
2022/08/04 05:43:59;;;;;;;3.03;2.03;;;;;;;26.64;41.67;97240.56;5016707;28;20984;-73
2022/08/04 05:46:25;;;;;;;4.57;2.10;;;;;;;26.68;41.58;97249.72;5024332;28;20413;-71
2022/08/04 05:48:52;;;;;;;3.40;2.00;;;;;;;26.73;41.45;97238.22;5022073;28;20515;-73
2022/08/04 05:51:17;;;;;;;5.20;2.70;;;;;;;26.81;41.36;97248.53;5021348;28;21024;-72
2022/08/04 05:53:43;;;;;;;3.00;2.17;;;;;;;26.97;41.18;97245.94;5021076;28;20510;-73
2022/08/04 05:56:11;;;;;;;3.97;2.70;;;;;;;27.08;40.84;97253.03;5031161;28;20183;-74
2022/08/04 05:58:37;;;;;;;4.23;2.00;;;;;;;27.21;40.72;97251.78;5034867;28;20186;-73
2022/08/04 06:01:04;;;;;;;10.37;2.40;;;;;;;27.32;40.85;97247.28;5033308;28;20528;-72
2022/08/04 06:03:30;;;;;;;3.60;2.23;;;;;;;27.49;40.55;97246.31;5031154;28;20453;-72
2022/08/04 06:05:56;;;;;;;3.70;2.43;;;;;;;27.64;40.56;97256.34;5015569;28;20451;-72
2022/08/04 06:08:23;;;;;;;4.00;2.20;;;;;;;27.77;40.50;97245.09;5030283;28;20882;-72
2022/08/04 06:10:50;;;;;;;12.50;2.67;;;;;;;27.94;40.14;97254.84;5024802;28;20493;-73
2022/08/04 06:13:18;;;;;;;15.50;2.23;;;;;;;28.09;40.07;97248.75;5037821;28;20452;-72
2022/08/04 06:15:45;;;;;;;4.33;2.23;;;;;;;28.25;40.23;97250.38;5031548;28;20440;-74
2022/08/04 06:18:11;;;;;;;2.33;2.13;;;;;;;28.42;40.11;97249.34;5033204;28;20429;-73
2022/08/04 06:20:38;;;;;;;7.63;2.47;;;;;;;28.59;40.19;97243.72;5027526;28;20993;-73
2022/08/04 06:23:06;;;;;;;6.40;2.63;;;;;;;28.75;39.63;97234.59;5019642;28;20215;-74
2022/08/04 06:25:35;;;;;;;4.33;2.60;;;;;;;28.92;39.66;97236.22;5032751;28;20429;-73
2022/08/04 06:28:04;;;;;;;3.53;2.43;;;;;;;29.07;38.81;97241.56;5024280;28;20504;-73
2022/08/04 06:30:31;;;;;;;3.87;2.17;;;;;;;29.25;39.07;97245.56;5030648;28;20480;-73
2022/08/04 06:32:59;;;;;;;4.80;2.40;;;;;;;29.42;38.88;97241.81;5033665;28;20453;-72
2022/08/04 06:35:24;;;;;;;9.83;2.27;;;;;;;29.58;38.26;97243.38;5048910;28;20418;-72
2022/08/04 06:37:51;;;;;;;5.50;2.40;;;;;;;29.73;37.54;97241.72;5041061;28;20426;-72
2022/08/04 06:40:18;;;;;;;3.13;2.30;;;;;;;29.85;37.13;97244.91;5036980;28;20199;-73
2022/08/04 06:42:44;;;;;;;6.47;2.37;;;;;;;30.02;36.94;97241.88;5031311;28;20482;-74
2022/08/04 06:45:11;;;;;;;3.87;2.57;;;;;;;30.14;36.61;97246.13;5028011;28;20884;-73
2022/08/04 06:47:38;;;;;;;3.77;2.00;;;;;;;30.32;36.71;97239.28;5041952;28;20264;-73
2022/08/04 06:50:04;;;;;;;3.77;2.33;;;;;;;30.47;36.35;97247.28;5028417;28;20457;-71
2022/08/04 06:52:30;;;;;;;2.50;2.13;;;;;;;30.63;36.20;97239.06;5039221;28;20494;-72
2022/08/04 06:54:55;;;;;;;7.80;2.33;;;;;;;30.76;35.47;97248.44;5029151;28;20834;-73
2022/08/04 06:57:23;;;;;;;2.67;2.30;;;;;;;30.89;35.27;97246.97;5046562;28;20179;-72
2022/08/04 07:00:01;;;;;;;4.73;2.30;;;;;;;31.03;35.32;97247.16;5032873;28;20184;-72
2022/08/04 07:02:29;;;;;;;12.07;2.50;;;;;;;31.18;35.22;97249.75;5029589;28;20437;-72
2022/08/04 07:04:55;;;;;;;6.33;2.17;;;;;;;31.34;34.78;97252.28;4987029;28;20459;-72
2022/08/04 07:07:23;;;;;;;1.90;1.80;;;;;;;31.41;32.41;97252.75;5033302;28;20438;-71
2022/08/04 07:09:48;;;;;;;3.47;1.80;;;;;;;31.55;31.79;97247.44;5028825;28;21007;-73
2022/08/04 07:12:15;;;;;;;1.83;1.73;;;;;;;31.71;31.58;97248.91;5020423;28;20448;-72
2022/08/04 07:14:41;;;;;;;3.60;1.90;;;;;;;31.84;30.92;97252.03;5050622;28;20766;-72
2022/08/04 07:17:08;;;;;;;1.93;1.70;;;;;;;32.00;31.06;97253.44;5034622;28;20429;-73
2022/08/04 07:19:37;;;;;;;1.90;1.80;;;;;;;32.09;30.91;97248.16;5038256;28;20418;-73
2022/08/04 07:22:04;;;;;;;4.53;1.90;;;;;;;32.20;31.02;97250.75;5037086;28;20454;-72
2022/08/04 07:24:34;;;;;;;2.77;1.90;;;;;;;32.37;31.07;97250.25;5029003;28;20445;-72
2022/08/04 07:27:00;;;;;;;2.10;1.80;;;;;;;32.50;30.86;97246.81;5044736;28;20825;-73
2022/08/04 07:29:26;;;;;;;2.70;1.93;;;;;;;32.67;30.73;97242.75;5031731;28;20445;-72
2022/08/04 07:31:52;;;;;;;1.73;1.63;;;;;;;32.80;30.37;97242.00;5046769;28;20621;-73
2022/08/04 07:34:19;;;;;;;2.80;1.60;;;;;;;32.83;29.65;97238.72;5034629;28;20444;-73
2022/08/04 07:36:44;;;;;;;4.90;1.80;;;;;;;32.86;30.02;97243.56;5049969;28;20479;-72
2022/08/04 07:39:10;;;;;;;2.07;1.80;;;;;;;33.00;29.48;97245.50;5045853;28;20948;-73
2022/08/04 07:41:35;;;;;;;1.70;1.60;;;;;;;33.11;29.26;97244.22;5044626;28;20183;-73
2022/08/04 07:44:02;;;;;;;3.00;1.53;;;;;;;33.21;29.00;97241.31;5047039;28;20284;-73
2022/08/04 07:46:28;;;;;;;1.77;1.60;;;;;;;33.33;29.12;97248.16;5043727;28;20186;-72
2022/08/04 07:48:53;;;;;;;5.33;2.20;;;;;;;33.46;29.18;97228.38;5049304;28;20792;-72
2022/08/04 07:51:19;;;;;;;2.07;1.80;;;;;;;33.61;29.33;97235.41;5045402;28;20211;-72
2022/08/04 07:53:46;;;;;;;4.70;1.80;;;;;;;33.74;29.33;97241.97;5048651;28;20210;-72
2022/08/04 07:56:12;;;;;;;2.50;1.67;;;;;;;33.65;28.97;97238.31;5039524;28;20186;-72
2022/08/04 07:58:38;;;;;;;2.03;1.57;;;;;;;33.80;29.04;97239.94;5049596;28;20805;-72
2022/08/04 08:01:03;;;;;;;1.83;1.60;;;;;;;33.91;28.49;97232.38;5048584;28;20429;-73
2022/08/04 08:03:29;;;;;;;2.73;1.30;;;;;;;34.03;28.45;97232.66;5042416;28;20611;-72
2022/08/04 08:05:54;;;;;;;3.10;1.73;;;;;;;34.08;27.97;97235.28;5043927;28;20187;-73
2022/08/04 08:08:20;;;;;;;2.13;1.60;;;;;;;34.24;27.42;97235.75;5043411;28;20187;-72
2022/08/04 08:10:47;;;;;;;5.40;1.83;;;;;;;34.36;27.33;97235.22;5045076;28;20622;-73
2022/08/04 08:13:14;;;;;;;2.17;1.60;;;;;;;34.32;27.13;97231.50;5038511;28;20964;-74
2022/08/04 08:15:40;;;;;;;2.00;1.80;;;;;;;34.52;27.95;97230.25;5045892;28;20427;-72
2022/08/04 08:18:06;;;;;;;1.70;1.60;;;;;;;34.37;27.26;97231.38;5043626;28;20444;-72
2022/08/04 08:20:31;;;;;;;2.07;1.47;;;;;;;34.48;27.08;97229.25;5044245;28;20773;-72
2022/08/04 08:22:58;;;;;;;1.40;1.30;;;;;;;34.47;27.30;97232.28;5047573;28;20207;-74
2022/08/04 08:25:24;;;;;;;1.77;1.50;;;;;;;34.67;27.13;97225.53;5044844;28;20204;-74
2022/08/04 08:27:49;;;;;;;2.60;1.70;;;;;;;34.80;26.74;97227.38;5043416;28;20449;-74
2022/08/04 08:30:15;;;;;;;2.10;1.70;;;;;;;34.87;26.21;97226.94;5037241;28;20226;-74
2022/08/04 08:32:40;;;;;;;1.80;1.70;;;;;;;34.98;26.81;97228.31;5036119;28;20204;-74
2022/08/04 08:35:06;;;;;;;2.10;1.60;;;;;;;35.02;26.33;97229.31;5043850;28;20186;-74
2022/08/04 08:37:35;;;;;;;3.00;1.57;;;;;;;35.17;26.63;97224.56;5042817;28;20641;-73
2022/08/04 08:40:16;;;;;;;2.00;1.80;;;;;;;35.39;26.42;97214.75;5039995;28;20195;-73
2022/08/04 08:43:04;;;;;;;4.97;1.67;;;;;;;35.63;26.10;97226.06;5042537;28;20518;-73
2022/08/04 08:45:54;;;;;;;8.60;1.93;;;;;;;35.81;25.76;97217.91;5028903;28;20513;-74
2022/08/04 08:48:39;;;;;;;2.70;1.63;;;;;;;36.01;25.39;97221.97;5045106;28;20467;-72
2022/08/04 08:51:36;;;;;;;4.70;1.77;;;;;;;36.08;25.53;97224.22;5042740;28;21008;-74
2022/08/04 08:54:28;;;;;;;3.73;1.60;;;;;;;36.11;25.34;97234.50;5043802;28;20441;-73
2022/08/04 08:57:23;;;;;;;1.90;1.80;;;;;;;36.34;25.45;97228.91;5047087;28;20801;-74
2022/08/04 09:00:09;;;;;;;2.90;1.73;;;;;;;36.52;25.36;97233.25;5041220;28;20520;-73
2022/08/04 09:03:17;;;;;;;1.80;1.70;;;;;;;36.56;25.44;97236.94;5028756;28;20464;-72
2022/08/04 09:06:27;;;;;;;1.70;1.60;;;;;;;36.79;25.02;97233.22;5043611;28;20456;-73
2022/08/04 09:09:11;;;;;;;2.33;1.70;;;;;;;36.88;24.94;97242.19;5041631;28;20948;-73
2022/08/04 09:11:54;;;;;;;2.97;1.83;;;;;;;37.10;24.83;97229.50;5040867;28;20425;-73
2022/08/04 09:14:24;;;;;;;6.40;1.77;;;;;;;37.32;24.74;97231.16;5049241;28;20455;-72
2022/08/04 09:16:53;;;;;;;1.80;1.70;;;;;;;37.19;24.30;97232.97;5045000;28;20418;-72
2022/08/04 09:19:44;;;;;;;3.33;1.80;;;;;;;37.43;24.38;97226.94;5041446;28;20418;-73
2022/08/04 09:22:39;;;;;;;2.80;1.83;;;;;;;37.45;23.83;97240.31;5044838;28;20417;-73
2022/08/04 09:25:34;;;;;;;3.40;2.10;;;;;;;37.62;24.11;97236.69;5032082;28;20472;-73
2022/08/04 09:28:07;;;;;;;2.10;2.00;;;;;;;37.85;24.02;97228.19;5039294;28;20426;-73
2022/08/04 09:30:59;;;;;;;1.80;1.70;;;;;;;38.05;24.21;97227.44;5019736;28;20418;-73
2022/08/04 09:33:37;;;;;;;2.00;1.90;;;;;;;38.27;23.80;97222.75;5003241;28;20441;-72
2022/08/04 09:36:22;;;;;;;4.53;1.90;;;;;;;38.49;23.14;97227.13;5046770;28;20413;-73
2022/08/04 09:38:57;;;;;;;2.53;1.70;;;;;;;38.65;22.57;97232.75;5033008;28;20966;-73
2022/08/04 09:41:33;;;;;;;2.30;1.90;;;;;;;38.56;23.04;97216.41;5042897;28;20516;-74
2022/08/04 09:44:32;;;;;;;3.43;2.17;;;;;;;38.61;22.26;97209.13;5025030;28;20463;-74
2022/08/04 09:47:09;;;;;;;1.70;1.60;;;;;;;38.70;22.15;97215.31;5041296;28;20413;-73
2022/08/04 09:50:09;;;;;;;7.90;2.10;;;;;;;38.86;22.67;97218.25;5042815;28;20524;-74
2022/08/04 09:52:46;;;;;;;2.87;1.40;;;;;;;39.10;22.21;97211.19;5037751;28;20500;-73
2022/08/04 09:55:42;;;;;;;2.00;1.80;;;;;;;39.30;21.68;97215.03;5037594;28;20425;-74
2022/08/04 09:58:14;;;;;;;4.60;1.80;;;;;;;39.43;21.39;97205.66;5042504;28;20410;-73
2022/08/04 10:00:46;;;;;;;1.60;1.50;;;;;;;39.58;21.45;97209.66;5028635;28;20955;-74
2022/08/04 10:03:13;;;;;;;3.13;1.93;;;;;;;39.61;20.59;97208.19;5040108;28;20464;-74
2022/08/04 10:06:17;;;;;;;6.80;1.77;;;;;;;39.88;20.88;97200.41;5046015;28;20417;-74
2022/08/04 10:09:08;;;;;;;3.73;2.10;;;;;;;39.70;21.12;97199.84;5037700;28;20436;-74
2022/08/04 10:11:53;;;;;;;1.90;1.80;;;;;;;39.61;20.07;97203.47;5041081;28;20423;-73
2022/08/04 10:14:31;;;;;;;2.73;1.73;;;;;;;39.89;20.40;97202.78;5045774;28;20444;-73
2022/08/04 10:17:20;;;;;;;2.00;1.80;;;;;;;40.07;19.86;97197.03;5042217;28;20289;-73
2022/08/04 10:19:52;;;;;;;2.57;1.50;;;;;;;40.21;19.08;97196.66;5027759;28;20229;-73
2022/08/04 10:22:27;;;;;;;2.67;1.50;;;;;;;40.33;18.74;97188.38;5041915;28;20419;-73
2022/08/04 10:25:00;;;;;;;3.63;1.50;;;;;;;40.51;19.18;97190.84;5016704;28;20514;-73
2022/08/04 10:27:35;;;;;;;6.40;1.77;;;;;;;40.64;18.71;97186.88;5042256;28;20185;-73
2022/08/04 10:30:10;;;;;;;9.02;1.40;;;;;;;40.75;18.08;97180.91;5023778;28;20424;-73
2022/08/04 10:32:59;;;;;;;5.67;1.70;;;;;;;40.85;18.41;97185.88;5040774;28;20246;-74
2022/08/04 10:35:27;;;;;;;1.67;1.50;;;;;;;40.62;18.51;97182.91;5040667;28;20427;-73
2022/08/04 10:38:05;;;;;;;2.17;1.50;;;;;;;40.75;18.60;97181.69;5038411;28;20205;-73
2022/08/04 10:40:37;;;;;;;2.72;1.80;;;;;;;40.75;18.73;97178.94;5029645;28;20205;-72
2022/08/04 10:43:21;;;;;;;3.42;1.70;;;;;;;40.97;19.01;97172.06;5041379;28;20738;-74
2022/08/04 10:45:51;;;;;;;5.95;1.70;;;;;;;40.80;18.48;97166.88;5030437;28;20208;-74
2022/08/04 10:48:27;;;;;;;1.90;1.55;;;;;;;41.03;18.77;97164.34;5042405;28;20183;-74
2022/08/04 10:51:06;;;;;;;2.17;1.88;;;;;;;41.17;18.71;97163.91;5043835;28;20200;-73
2022/08/04 10:53:33;;;;;;;6.05;1.40;;;;;;;41.29;18.90;97163.03;5045809;28;20213;-74
2022/08/04 10:56:05;;;;;;;1.52;1.42;;;;;;;41.35;18.66;97169.81;5043342;28;20186;-74
2022/08/04 10:58:36;;;;;;;1.83;1.33;;;;;;;41.24;18.56;97164.09;5048324;28;20809;-74
2022/08/04 11:01:06;;;;;;;3.20;1.45;;;;;;;41.37;18.33;97167.53;5044127;28;20221;-74
2022/08/04 11:03:56;;;;;;;3.35;1.27;;;;;;;41.51;18.36;97158.84;5039422;28;20252;-74
2022/08/04 11:06:23;;;;;;;3.03;1.70;;;;;;;41.36;17.41;97163.16;5037809;28;20557;-74
2022/08/04 11:08:51;;;;;;;5.53;1.50;;;;;;;41.57;17.61;97153.88;5044136;28;20722;-74
2022/08/04 11:11:29;;;;;;;1.55;1.45;;;;;;;41.37;17.84;97159.28;5035917;28;20202;-74
2022/08/04 11:14:10;;;;;;;1.70;1.60;;;;;;;41.59;17.93;97157.03;5047396;28;20282;-75
2022/08/04 11:16:50;;;;;;;2.33;1.40;;;;;;;41.74;17.69;97155.41;5036005;28;20645;-74
2022/08/04 11:19:41;;;;;;;2.13;1.40;;;;;;;41.20;18.09;97149.47;5039629;28;20175;-72
2022/08/04 11:22:14;;;;;;;3.42;1.60;;;;;;;41.42;17.55;97142.53;5043009;28;20170;-73
2022/08/04 11:24:44;;;;;;;1.63;1.35;;;;;;;41.55;16.82;97156.97;5042303;28;20256;-74
2022/08/04 11:27:36;;;;;;;2.88;1.60;;;;;;;41.61;17.14;97154.72;5043577;28;20222;-74
2022/08/04 11:30:05;;;;;;;2.22;1.30;;;;;;;41.70;16.91;97151.78;5039371;28;20182;-73
2022/08/04 11:32:50;;;;;;;1.92;1.30;;;;;;;41.62;17.17;97150.81;5041442;28;20202;-73
2022/08/04 11:35:26;;;;;;;1.60;1.50;;;;;;;41.81;17.39;97147.28;5043788;28;20189;-74
2022/08/04 11:38:01;;;;;;;4.55;1.60;;;;;;;41.93;16.85;97138.16;5040560;28;20244;-74
2022/08/04 11:40:40;;;;;;;4.63;1.58;;;;;;;41.64;16.51;97143.00;5043210;28;20273;-74
2022/08/04 11:43:18;;;;;;;3.63;1.30;;;;;;;41.76;17.10;97144.84;5041427;28;20218;-73
2022/08/04 11:45:54;;;;;;;2.90;1.65;;;;;;;41.13;17.12;97141.06;5041433;28;20212;-75
2022/08/04 11:48:27;;;;;;;4.50;1.50;;;;;;;40.82;17.27;97146.19;5042830;28;20181;-73
2022/08/04 11:50:54;;;;;;;1.30;1.20;;;;;;;40.88;17.39;97151.41;5043178;28;20675;-73
2022/08/04 11:53:22;;;;;;;1.63;1.53;;;;;;;40.76;17.42;97142.09;5033435;28;20199;-75
2022/08/04 11:55:51;;;;;;;1.88;1.50;;;;;;;40.90;18.05;97135.38;5044338;28;20309;-74
2022/08/04 11:58:17;;;;;;;2.58;1.40;;;;;;;41.19;18.26;97138.84;5049600;28;20222;-73
2022/08/04 12:01:04;;;;;;;2.63;1.98;;;;;;;41.46;18.12;97129.63;5047618;28;20194;-75
2022/08/04 12:03:41;;;;;;;5.85;1.92;;;;;;;41.65;18.17;97133.63;5025289;28;20229;-73
2022/08/04 12:06:20;;;;;;;3.80;1.50;;;;;;;41.65;18.10;97130.06;5039238;28;20187;-73
2022/08/04 12:09:22;;;;;;;3.05;1.85;;;;;;;41.75;17.57;97116.53;5041131;28;20216;-73
2022/08/04 12:11:56;;;;;;;2.00;1.58;;;;;;;41.76;17.94;97118.13;5045903;28;20341;-73
2022/08/04 12:14:30;;;;;;;8.75;2.05;;;;;;;41.63;17.94;97135.91;5053089;28;20198;-74
2022/08/04 12:17:03;;;;;;;2.35;1.90;;;;;;;41.56;18.06;97138.53;5045881;28;20199;-74